Francisco Camaco — CULX2 — position and weather

sailwx.info

Track history (hours):
 
Tides and Currents Weather Stations Pressure Air Temp Water Temp Dewpoint Dewpoint Depression Visibility Wind Speed Wind Dir Waves Ship Positions

Francisco Camaco

Last reported at 2018-Feb-16 15:09 UTC. Time now 2018-Feb-18 04:33 UTC.
Position N 38°26' W 009°07'.

Length 23 m.

Type: Fishing. MMSI: 263431350.

Date/timePositionNaut miles runAvg speedWind from/ knotsBaromVisibWave heightAir tempDewpointWater temp
2018-Feb-16 15:09N 38°26' W 009°07'0 0.0
2018-Feb-16 15:00N 38°26' W 009°07'0 0.0
2018-Feb-16 14:28N 38°26' W 009°07'0 0.0
2018-Feb-16 14:00N 38°26' W 009°07'0 0.0
2018-Feb-16 13:31N 38°26' W 009°07'4 8.1
2018-Feb-16 13:00N 38°24' W 009°02'5 9.1
2018-Feb-16 12:30N 38°21' W 008°58'9 9.0
2018-Feb-16 11:29N 38°16' W 008°48'1 1.3
2018-Feb-16 11:01N 38°15' W 008°48'0 0.1
2018-Feb-16 10:30N 38°15' W 008°48'0 0.2
2018-Feb-16 10:00N 38°15' W 008°48'0 0.1
2018-Feb-16 09:30N 38°15' W 008°48'0 0.2
2018-Feb-16 09:00N 38°15' W 008°48'0 0.1
2018-Feb-16 08:29N 38°15' W 008°48'0 0.1
2018-Feb-16 08:00N 38°15' W 008°48'0 0.1
2018-Feb-16 07:30N 38°15' W 008°48'1 2.2
2018-Feb-16 07:00N 38°16' W 008°49'0 0.2
2018-Feb-16 06:30N 38°16' W 008°49'2 3.7
2018-Feb-16 06:00N 38°18' W 008°50'4 9.0
2018-Feb-16 05:30N 38°20' W 008°55'5 9.1
2018-Feb-16 05:00N 38°23' W 008°59'5 9.2
2018-Feb-16 04:30N 38°25' W 009°04'2 0.3
2018-Feb-15 21:39N 38°26' W 009°07'0 0.0
2018-Feb-15 21:30N 38°26' W 009°07'0 0.2
2018-Feb-15 21:00N 38°26' W 009°07'0 0.0
2018-Feb-15 19:03N 38°26' W 009°07'0 0.0
2018-Feb-15 19:00N 38°26' W 009°07'0 0.0
2018-Feb-15 13:47N 38°26' W 009°07'0 0.5
2018-Feb-15 13:30N 38°26' W 009°07'0 0.0
2018-Feb-15 13:00N 38°26' W 009°07'2 3.4
2018-Feb-15 12:30N 38°26' W 009°05'5 9.2
2018-Feb-15 12:00N 38°23' W 009°00'5 9.1
2018-Feb-15 11:30N 38°20' W 008°55'5 9.0
2018-Feb-15 10:59N 38°18' W 008°50'2 5.2
2018-Feb-15 10:30N 38°16' W 008°48'0 0.5
2018-Feb-15 10:00N 38°16' W 008°48'0 0.4
2018-Feb-15 09:30N 38°16' W 008°48'0 0.2
2018-Feb-15 09:00N 38°16' W 008°48'0 0.1
2018-Feb-15 08:30N 38°16' W 008°48'0 0.1
2018-Feb-15 08:00N 38°16' W 008°48'0 0.5
2018-Feb-15 07:30N 38°15' W 008°48'4 7.6
2018-Feb-15 06:59N 38°19' W 008°50'2 2.5
2018-Feb-15 06:19N 38°21' W 008°50'0 0.4
2018-Feb-15 06:00N 38°21' W 008°50'0 0.1
2018-Feb-15 05:30N 38°21' W 008°50'0 0.0
2018-Feb-15 04:22N 38°21' W 008°50'0 0.0
2018-Feb-15 03:15N 38°21' W 008°50'0 0.0
2018-Feb-15 02:48N 38°21' W 008°50'0 0.0
2018-Feb-15 02:30N 38°21' W 008°50'0 0.0
2018-Feb-15 01:54N 38°21' W 008°50'0 0.0
2018-Feb-15 01:24N 38°21' W 008°50'0 0.1
2018-Feb-15 00:59N 38°21' W 008°50'0 0.1
2018-Feb-15 00:30N 38°20' W 008°50'0 0.1
2018-Feb-15 00:00N 38°20' W 008°50'0 0.1
2018-Feb-14 23:30N 38°20' W 008°50'0 0.0
2018-Feb-14 23:00N 38°20' W 008°50'0 0.1
2018-Feb-14 22:29N 38°20' W 008°50'0 0.3
2018-Feb-14 21:54N 38°20' W 008°51'2 4.8
2018-Feb-14 21:30N 38°20' W 008°48'3 6.7
2018-Feb-14 21:00N 38°17' W 008°49'4 8.0
2018-Feb-14 20:30N 38°13' W 008°49'2 4.6
2018-Feb-14 20:01N 38°15' W 008°48'4 7.3
2018-Feb-14 19:29N 38°18' W 008°50'4 7.3
2018-Feb-14 18:56N 38°21' W 008°53'4 9.5
2018-Feb-14 18:30N 38°23' W 008°58'5 9.8
2018-Feb-14 18:00N 38°24' W 009°04'3 3.3
2018-Feb-14 17:09N 38°26' W 009°07'0 0.0
2018-Feb-14 17:00N 38°26' W 009°07'0 0.0
2018-Feb-14 11:34N 38°26' W 009°07'0 0.0
2018-Feb-14 11:30N 38°26' W 009°07'5 8.4
2018-Feb-14 10:58N 38°24' W 009°12'5 0.4
2018-Feb-13 23:00N 38°26' W 009°07'0 0.1
2018-Feb-13 22:30N 38°26' W 009°07'  
2018-Feb-09 18:31N 38°26' W 009°03'5 0.2
2018-Feb-08 11:30N 38°25' W 009°09'11 1.1
2018-Feb-08 01:30N 38°35' W 009°15'2 4.0
2018-Feb-08 01:00N 38°33' W 009°13'2 4.5
2018-Feb-08 00:30N 38°31' W 009°14'4 7.2
2018-Feb-07 23:57N 38°27' W 009°14'4 8.0
2018-Feb-07 23:30N 38°24' W 009°12'5 9.1
2018-Feb-07 23:00N 38°26' W 009°06'0 0.5
2018-Feb-07 22:30N 38°26' W 009°07'17 1.3
2018-Feb-07 09:27N 38°16' W 008°50'2 5.2
2018-Feb-07 09:00N 38°14' W 008°48'2 4.5
2018-Feb-07 08:30N 38°16' W 008°49'2 4.2
2018-Feb-07 07:59N 38°18' W 008°49'5 9.4
2018-Feb-07 07:30N 38°22' W 008°52'3 5.1
2018-Feb-07 07:00N 38°23' W 008°55'5 9.9
2018-Feb-07 06:30N 38°25' W 009°01'5 9.8
2018-Feb-07 06:00N 38°26' W 009°07'0 0.5
2018-Feb-07 05:30N 38°26' W 009°06'7 7.1
2018-Feb-07 04:29N 38°28' W 009°16'5 9.5
2018-Feb-07 04:00N 38°32' W 009°18'5 8.9
2018-Feb-07 03:29N 38°36' W 009°20'1 1.1
2018-Feb-07 02:58N 38°36' W 009°21'1 1.4
2018-Feb-07 02:30N 38°37' W 009°20'1 1.7
2018-Feb-07 02:00N 38°37' W 009°21'1 2.4
2018-Feb-07 01:30N 38°37' W 009°20'2 3.6
2018-Feb-07 01:00N 38°35' W 009°19'3 5.1
2018-Feb-07 00:30N 38°35' W 009°16'4 6.5
2018-Feb-06 23:57N 38°32' W 009°14'7 7.5
2018-Feb-06 23:00N 38°25' W 009°13'4 9.0
2018-Feb-06 22:30N 38°26' W 009°08'  
Track history (hours):
 
Tides and Currents Weather Stations Pressure Air Temp Water Temp Dewpoint Dewpoint Depression Visibility Wind Speed Wind Dir Waves Ship Positions

Francisco Camaco

Last reported at 2018-Feb-16 15:09 UTC. Time now 2018-Feb-18 04:33 UTC.
Position N 38°26' W 009°07'.

Length 23 m.

Type: Fishing. MMSI: 263431350.

Date/timePositionNaut miles runAvg speedWind from/ knotsBaromVisibWave heightAir tempDewpointWater temp
2018-Feb-16 15:09N 38°26' W 009°07'0 0.0
2018-Feb-16 15:00N 38°26' W 009°07'0 0.0
2018-Feb-16 14:28N 38°26' W 009°07'0 0.0
2018-Feb-16 14:00N 38°26' W 009°07'0 0.0
2018-Feb-16 13:31N 38°26' W 009°07'4 8.1
2018-Feb-16 13:00N 38°24' W 009°02'5 9.1
2018-Feb-16 12:30N 38°21' W 008°58'9 9.0
2018-Feb-16 11:29N 38°16' W 008°48'1 1.3
2018-Feb-16 11:01N 38°15' W 008°48'0 0.1
2018-Feb-16 10:30N 38°15' W 008°48'0 0.2
2018-Feb-16 10:00N 38°15' W 008°48'0 0.1
2018-Feb-16 09:30N 38°15' W 008°48'0 0.2
2018-Feb-16 09:00N 38°15' W 008°48'0 0.1
2018-Feb-16 08:29N 38°15' W 008°48'0 0.1
2018-Feb-16 08:00N 38°15' W 008°48'0 0.1
2018-Feb-16 07:30N 38°15' W 008°48'1 2.2
2018-Feb-16 07:00N 38°16' W 008°49'0 0.2
2018-Feb-16 06:30N 38°16' W 008°49'2 3.7
2018-Feb-16 06:00N 38°18' W 008°50'4 9.0
2018-Feb-16 05:30N 38°20' W 008°55'5 9.1
2018-Feb-16 05:00N 38°23' W 008°59'5 9.2
2018-Feb-16 04:30N 38°25' W 009°04'2 0.3
2018-Feb-15 21:39N 38°26' W 009°07'0 0.0
2018-Feb-15 21:30N 38°26' W 009°07'0 0.2
2018-Feb-15 21:00N 38°26' W 009°07'0 0.0
2018-Feb-15 19:03N 38°26' W 009°07'0 0.0
2018-Feb-15 19:00N 38°26' W 009°07'0 0.0
2018-Feb-15 13:47N 38°26' W 009°07'0 0.5
2018-Feb-15 13:30N 38°26' W 009°07'0 0.0
2018-Feb-15 13:00N 38°26' W 009°07'2 3.4
2018-Feb-15 12:30N 38°26' W 009°05'5 9.2
2018-Feb-15 12:00N 38°23' W 009°00'5 9.1
2018-Feb-15 11:30N 38°20' W 008°55'5 9.0
2018-Feb-15 10:59N 38°18' W 008°50'2 5.2
2018-Feb-15 10:30N 38°16' W 008°48'0 0.5
2018-Feb-15 10:00N 38°16' W 008°48'0 0.4
2018-Feb-15 09:30N 38°16' W 008°48'0 0.2
2018-Feb-15 09:00N 38°16' W 008°48'0 0.1
2018-Feb-15 08:30N 38°16' W 008°48'0 0.1
2018-Feb-15 08:00N 38°16' W 008°48'0 0.5
2018-Feb-15 07:30N 38°15' W 008°48'4 7.6
2018-Feb-15 06:59N 38°19' W 008°50'2 2.5
2018-Feb-15 06:19N 38°21' W 008°50'0 0.4
2018-Feb-15 06:00N 38°21' W 008°50'0 0.1
2018-Feb-15 05:30N 38°21' W 008°50'0 0.0
2018-Feb-15 04:22N 38°21' W 008°50'0 0.0
2018-Feb-15 03:15N 38°21' W 008°50'0 0.0
2018-Feb-15 02:48N 38°21' W 008°50'0 0.0
2018-Feb-15 02:30N 38°21' W 008°50'0 0.0
2018-Feb-15 01:54N 38°21' W 008°50'0 0.0
2018-Feb-15 01:24N 38°21' W 008°50'0 0.1
2018-Feb-15 00:59N 38°21' W 008°50'0 0.1
2018-Feb-15 00:30N 38°20' W 008°50'0 0.1
2018-Feb-15 00:00N 38°20' W 008°50'0 0.1
2018-Feb-14 23:30N 38°20' W 008°50'0 0.0
2018-Feb-14 23:00N 38°20' W 008°50'0 0.1
2018-Feb-14 22:29N 38°20' W 008°50'0 0.3
2018-Feb-14 21:54N 38°20' W 008°51'2 4.8
2018-Feb-14 21:30N 38°20' W 008°48'3 6.7
2018-Feb-14 21:00N 38°17' W 008°49'4 8.0
2018-Feb-14 20:30N 38°13' W 008°49'2 4.6
2018-Feb-14 20:01N 38°15' W 008°48'4 7.3
2018-Feb-14 19:29N 38°18' W 008°50'4 7.3
2018-Feb-14 18:56N 38°21' W 008°53'4 9.5
2018-Feb-14 18:30N 38°23' W 008°58'5 9.8
2018-Feb-14 18:00N 38°24' W 009°04'3 3.3
2018-Feb-14 17:09N 38°26' W 009°07'0 0.0
2018-Feb-14 17:00N 38°26' W 009°07'0 0.0
2018-Feb-14 11:34N 38°26' W 009°07'0 0.0
2018-Feb-14 11:30N 38°26' W 009°07'5 8.4
2018-Feb-14 10:58N 38°24' W 009°12'5 0.4
2018-Feb-13 23:00N 38°26' W 009°07'0 0.1
2018-Feb-13 22:30N 38°26' W 009°07'  
2018-Feb-09 18:31N 38°26' W 009°03'5 0.2
2018-Feb-08 11:30N 38°25' W 009°09'11 1.1
2018-Feb-08 01:30N 38°35' W 009°15'2 4.0
2018-Feb-08 01:00N 38°33' W 009°13'2 4.5
2018-Feb-08 00:30N 38°31' W 009°14'4 7.2
2018-Feb-07 23:57N 38°27' W 009°14'4 8.0
2018-Feb-07 23:30N 38°24' W 009°12'5 9.1
2018-Feb-07 23:00N 38°26' W 009°06'0 0.5
2018-Feb-07 22:30N 38°26' W 009°07'17 1.3
2018-Feb-07 09:27N 38°16' W 008°50'2 5.2
2018-Feb-07 09:00N 38°14' W 008°48'2 4.5
2018-Feb-07 08:30N 38°16' W 008°49'2 4.2
2018-Feb-07 07:59N 38°18' W 008°49'5 9.4
2018-Feb-07 07:30N 38°22' W 008°52'3 5.1
2018-Feb-07 07:00N 38°23' W 008°55'5 9.9
2018-Feb-07 06:30N 38°25' W 009°01'5 9.8
2018-Feb-07 06:00N 38°26' W 009°07'0 0.5
2018-Feb-07 05:30N 38°26' W 009°06'7 7.1
2018-Feb-07 04:29N 38°28' W 009°16'5 9.5
2018-Feb-07 04:00N 38°32' W 009°18'5 8.9
2018-Feb-07 03:29N 38°36' W 009°20'1 1.1
2018-Feb-07 02:58N 38°36' W 009°21'1 1.4
2018-Feb-07 02:30N 38°37' W 009°20'1 1.7
2018-Feb-07 02:00N 38°37' W 009°21'1 2.4
2018-Feb-07 01:30N 38°37' W 009°20'2 3.6
2018-Feb-07 01:00N 38°35' W 009°19'3 5.1
2018-Feb-07 00:30N 38°35' W 009°16'4 6.5
2018-Feb-06 23:57N 38°32' W 009°14'7 7.5
2018-Feb-06 23:00N 38°25' W 009°13'4 9.0
2018-Feb-06 22:30N 38°26' W 009°08'  

Dump ship's entire track history